createdAt,value
2019-04-14T00:00:07.613Z,9.30
2019-04-14T00:02:46.881Z,9.30
2019-04-14T00:05:17.451Z,9.40
2019-04-14T00:07:47.169Z,9.40
2019-04-14T00:10:18.241Z,9.20
2019-04-14T00:12:49.279Z,9.20
2019-04-14T00:15:27.782Z,9.20
2019-04-14T00:17:48.476Z,9.20
2019-04-14T00:20:16.875Z,9.20
2019-04-14T00:22:46.736Z,9.30
2019-04-14T00:25:15.703Z,9.20
2019-04-14T00:27:45.278Z,9.20
2019-04-14T00:30:17.007Z,9.20
2019-04-14T00:32:50.929Z,9.30
2019-04-14T00:35:49.452Z,9.30
2019-04-14T00:38:28.075Z,9.30
2019-04-14T00:41:05.144Z,9.20
2019-04-14T00:43:49.181Z,9.20
2019-04-14T00:46:25.492Z,9.20
2019-04-14T00:48:54.054Z,9.10
2019-04-14T00:51:22.891Z,9.00
2019-04-14T00:53:51.812Z,9.00
2019-04-14T00:56:21.499Z,9.00
2019-04-14T00:58:50.117Z,9.00
2019-04-14T01:01:19.749Z,9.00
2019-04-14T01:03:50.300Z,9.00
2019-04-14T01:06:19.142Z,9.10
2019-04-14T01:08:48.892Z,9.10
2019-04-14T01:11:18.174Z,9.10
2019-04-14T01:13:48.644Z,9.20
2019-04-14T01:16:21.673Z,9.20
2019-04-14T01:18:49.324Z,9.20
2019-04-14T01:21:19.559Z,9.00
2019-04-14T01:23:50.235Z,9.00
2019-04-14T01:26:20.359Z,9.10
2019-04-14T01:28:48.927Z,9.10
2019-04-14T01:31:18.450Z,9.10
2019-04-14T01:33:47.088Z,9.10
2019-04-14T01:36:15.607Z,9.10
2019-04-14T01:38:44.993Z,9.00
2019-04-14T01:41:14.925Z,8.90
2019-04-14T01:43:44.982Z,9.10
2019-04-14T01:46:18.625Z,9.10
2019-04-14T01:48:45.368Z,9.10
2019-04-14T01:51:24.574Z,9.00
2019-04-14T01:54:11.234Z,8.80
2019-04-14T01:57:11.528Z,8.60
2019-04-14T01:59:41.289Z,8.60
2019-04-14T02:02:14.084Z,8.60
2019-04-14T02:04:42.807Z,8.70
2019-04-14T02:07:12.401Z,8.80
2019-04-14T02:09:40.810Z,8.90
2019-04-14T02:12:10.498Z,8.90
2019-04-14T02:14:39.147Z,9.00
2019-04-14T02:17:08.183Z,9.00
2019-04-14T02:19:39.172Z,9.00
2019-04-14T02:22:07.857Z,9.00
2019-04-14T02:24:37.496Z,8.90
2019-04-14T02:27:06.171Z,8.70
2019-04-14T02:29:36.112Z,8.70
2019-04-14T02:32:33.835Z,8.70
2019-04-14T02:35:04.514Z,8.70
2019-04-14T02:42:40.309Z,8.70
2019-04-14T02:47:56.825Z,8.80
2019-04-14T02:50:18.034Z,8.90
2019-04-14T02:52:38.399Z,8.80
2019-04-14T02:55:02.894Z,8.90
2019-04-14T02:57:37.769Z,8.70
2019-04-14T03:00:16.718Z,8.60
2019-04-14T03:05:12.011Z,8.50
2019-04-14T03:07:46.934Z,8.50
2019-04-14T03:10:17.966Z,8.50
2019-04-14T03:15:17.009Z,8.60
2019-04-14T03:21:03.538Z,8.50
2019-04-14T03:23:46.806Z,8.40
2019-04-14T03:26:11.770Z,8.20
2019-04-14T03:28:45.590Z,8.30
2019-04-14T03:31:47.164Z,8.30
2019-04-14T03:34:18.170Z,8.50
2019-04-14T03:37:39.521Z,8.30
2019-04-14T03:39:00.007Z,8.40
2019-04-14T03:43:48.422Z,8.40
2019-04-14T03:46:43.342Z,8.40
2019-04-14T03:51:36.986Z,8.50
2019-04-14T03:53:54.498Z,8.60
2019-04-14T03:56:46.655Z,8.60
2019-04-14T03:59:21.889Z,8.50
2019-04-14T04:01:52.126Z,8.50
2019-04-14T04:04:20.778Z,8.50
2019-04-14T04:06:49.354Z,8.50
2019-04-14T04:09:19.282Z,8.50
2019-04-14T04:11:49.828Z,8.50
2019-04-14T04:14:18.727Z,8.50
2019-04-14T04:17:07.974Z,8.60
2019-04-14T04:20:02.549Z,8.70
2019-04-14T04:22:43.309Z,8.80
2019-04-14T04:25:18.231Z,8.80
2019-04-14T04:28:08.550Z,8.60
2019-04-14T04:30:42.688Z,8.60
2019-04-14T04:33:26.393Z,8.60
2019-04-14T04:35:59.178Z,8.70
2019-04-14T04:38:40.016Z,8.70
2019-04-14T04:41:10.145Z,8.70
2019-04-14T04:43:40.800Z,8.70
2019-04-14T04:46:11.270Z,8.70
2019-04-14T04:48:41.405Z,8.60
2019-04-14T04:51:10.246Z,8.60
2019-04-14T04:53:39.763Z,8.60
2019-04-14T04:56:08.514Z,8.70
2019-04-14T04:58:37.241Z,8.60
2019-04-14T05:01:05.850Z,8.60
2019-04-14T05:03:34.670Z,8.60
2019-04-14T05:06:57.339Z,8.70
2019-04-14T05:09:53.448Z,8.60
2019-04-14T05:12:54.278Z,8.50
2019-04-14T05:15:40.190Z,8.50
2019-04-14T05:18:16.190Z,8.60
2019-04-14T05:20:46.783Z,8.50
2019-04-14T05:23:15.288Z,8.50
2019-04-14T05:25:45.689Z,8.60
2019-04-14T05:28:15.462Z,8.60
2019-04-14T05:30:44.333Z,8.40
2019-04-14T05:33:14.141Z,8.40
2019-04-14T05:35:44.979Z,8.30
2019-04-14T05:38:14.662Z,8.40
2019-04-14T05:40:43.535Z,8.40
2019-04-14T05:43:13.394Z,8.50
2019-04-14T05:45:45.592Z,8.50
2019-04-14T05:48:16.075Z,8.60
2019-04-14T05:50:45.054Z,8.70
2019-04-14T05:53:13.938Z,8.80
2019-04-14T05:55:43.746Z,8.80
2019-04-14T05:58:12.455Z,8.80
2019-04-14T06:00:46.362Z,8.80
2019-04-14T06:03:15.060Z,8.60
2019-04-14T06:05:43.584Z,8.70
2019-04-14T06:08:12.241Z,8.70
2019-04-14T06:10:42.803Z,8.70
2019-04-14T06:13:11.896Z,8.80
2019-04-14T06:15:42.548Z,8.80
2019-04-14T06:18:12.963Z,8.80
2019-04-14T06:20:41.950Z,8.80
2019-04-14T06:23:12.226Z,8.80
2019-04-14T06:25:40.954Z,8.80
2019-04-14T06:28:10.097Z,8.70
2019-04-14T06:31:08.879Z,8.80
2019-04-14T06:33:55.687Z,8.90
2019-04-14T06:36:49.868Z,8.90
2019-04-14T06:39:27.431Z,8.90
2019-04-14T06:41:56.155Z,8.90
2019-04-14T06:44:26.811Z,8.80
2019-04-14T06:46:55.557Z,8.80
2019-04-14T06:49:23.963Z,8.70
2019-04-14T06:51:52.568Z,8.70
2019-04-14T06:54:21.504Z,8.70
2019-04-14T06:56:55.349Z,8.70
2019-04-14T06:59:26.313Z,8.80
2019-04-14T07:01:54.826Z,8.90
2019-04-14T07:04:24.096Z,8.90
2019-04-14T07:06:52.597Z,9.00
2019-04-14T07:09:21.132Z,9.00
2019-04-14T07:11:49.839Z,9.00
2019-04-14T07:14:18.573Z,9.00
2019-04-14T07:16:47.098Z,8.80
2019-04-14T07:19:16.009Z,8.70
2019-04-14T07:21:44.481Z,8.80
2019-04-14T07:24:13.205Z,8.80
2019-04-14T07:26:43.499Z,8.70
2019-04-14T07:29:14.840Z,8.90
2019-04-14T07:32:05.396Z,9.00
2019-04-14T07:35:02.614Z,9.00
2019-04-14T07:37:42.093Z,9.10
2019-04-14T07:40:29.379Z,9.00
2019-04-14T07:43:20.624Z,8.80
2019-04-14T07:45:54.237Z,8.70
2019-04-14T07:48:46.784Z,8.70
2019-04-14T07:51:32.386Z,8.70
2019-04-14T07:54:05.370Z,8.70
2019-04-14T07:56:44.938Z,8.70
2019-04-14T07:59:41.515Z,8.60
2019-04-14T08:02:16.516Z,8.60
2019-04-14T08:05:04.826Z,8.80
2019-04-14T08:07:33.331Z,8.90
2019-04-14T08:10:02.076Z,8.80
2019-04-14T08:12:30.768Z,8.80
2019-04-14T08:14:59.644Z,8.70
2019-04-14T08:17:28.244Z,8.80
2019-04-14T08:19:56.910Z,8.90
2019-04-14T08:22:25.395Z,8.80
2019-04-14T08:24:54.064Z,8.90
2019-04-14T08:27:24.556Z,8.90
2019-04-14T08:29:53.548Z,8.90
2019-04-14T08:32:22.570Z,8.90
2019-04-14T08:34:51.203Z,8.70
2019-04-14T08:37:19.817Z,8.90
2019-04-14T08:39:48.424Z,8.90
2019-04-14T08:42:42.967Z,8.90
2019-04-14T08:45:21.726Z,8.80
2019-04-14T08:48:09.888Z,8.80
2019-04-14T08:51:01.436Z,8.80
2019-04-14T08:53:42.023Z,8.90
2019-04-14T08:56:39.057Z,8.80
2019-04-14T08:59:18.848Z,8.80
2019-04-14T09:02:05.555Z,8.90
2019-04-14T09:04:44.140Z,9.10
2019-04-14T09:07:22.523Z,9.10
2019-04-14T09:09:55.096Z,9.00
2019-04-14T09:12:25.988Z,9.00
2019-04-14T09:14:57.314Z,9.00
2019-04-14T09:17:27.917Z,8.90
2019-04-14T09:19:56.315Z,8.90
2019-04-14T09:22:25.109Z,9.10
2019-04-14T09:24:53.926Z,9.20
2019-04-14T09:27:22.527Z,9.20
2019-04-14T09:29:52.493Z,9.30
2019-04-14T09:32:21.828Z,9.30
2019-04-14T09:34:50.932Z,9.20
2019-04-14T09:37:19.656Z,9.20
2019-04-14T09:39:48.883Z,9.20
2019-04-14T09:42:17.667Z,9.10
2019-04-14T09:44:48.135Z,9.20
2019-04-14T09:47:16.975Z,9.20
2019-04-14T09:49:45.568Z,9.30
2019-04-14T09:52:14.366Z,9.30
2019-04-14T09:54:43.133Z,9.40
2019-04-14T09:57:11.566Z,9.40
2019-04-14T09:59:40.067Z,9.30
2019-04-14T10:02:09.707Z,9.30
2019-04-14T10:04:38.373Z,9.30
2019-04-14T10:07:08.825Z,9.30
2019-04-14T10:09:46.703Z,9.30
2019-04-14T10:12:15.313Z,9.50
2019-04-14T10:14:44.391Z,9.60
2019-04-14T10:17:14.737Z,9.70
2019-04-14T10:19:45.123Z,9.60
2019-04-14T10:22:13.865Z,9.60
2019-04-14T10:24:42.609Z,9.60
2019-04-14T10:27:11.228Z,9.50
2019-04-14T10:29:39.937Z,9.50
2019-04-14T10:32:09.298Z,9.40
2019-04-14T10:34:38.911Z,9.50
2019-04-14T10:37:07.793Z,9.50
2019-04-14T10:39:38.099Z,9.60
2019-04-14T10:42:06.870Z,9.50
2019-04-14T10:44:35.404Z,9.30
2019-04-14T10:47:05.260Z,9.30
2019-04-14T10:49:34.046Z,9.40
2019-04-14T10:52:02.868Z,9.50
2019-04-14T10:54:31.655Z,9.50
2019-04-14T10:57:08.992Z,9.60
2019-04-14T10:59:37.486Z,9.40
2019-04-14T11:02:08.364Z,9.30
2019-04-14T11:04:37.144Z,9.40
2019-04-14T11:07:13.643Z,9.50
2019-04-14T11:09:42.236Z,9.50
2019-04-14T11:12:10.764Z,9.60
2019-04-14T11:14:40.623Z,9.50
2019-04-14T11:17:10.811Z,9.60
2019-04-14T11:19:39.658Z,9.40
2019-04-14T11:22:08.300Z,9.40
2019-04-14T11:24:36.808Z,9.50
2019-04-14T11:27:10.367Z,9.50
2019-04-14T11:29:39.043Z,9.50
2019-04-14T11:32:25.928Z,9.50
2019-04-14T11:35:04.184Z,9.60
2019-04-14T11:37:51.172Z,9.60
2019-04-14T11:40:22.669Z,9.40
2019-04-14T11:42:52.509Z,9.30
2019-04-14T11:45:21.557Z,9.50
2019-04-14T11:47:49.948Z,9.60
2019-04-14T11:50:19.159Z,9.60
2019-04-14T11:52:47.906Z,9.60
2019-04-14T11:55:16.841Z,9.70
2019-04-14T11:57:45.378Z,9.60
2019-04-14T12:00:37.196Z,9.60
2019-04-14T12:03:23.872Z,9.70
2019-04-14T12:06:10.832Z,9.70
2019-04-14T12:08:45.740Z,9.60
2019-04-14T12:11:14.435Z,9.60
2019-04-14T12:13:42.941Z,9.70
2019-04-14T12:16:11.534Z,9.50
2019-04-14T12:18:39.930Z,9.70
2019-04-14T12:21:08.826Z,9.60
2019-04-14T12:23:37.773Z,9.60
2019-04-14T12:26:06.584Z,9.70
2019-04-14T12:28:36.127Z,9.70
2019-04-14T12:31:06.496Z,9.70
2019-04-14T12:33:35.306Z,9.80
2019-04-14T12:36:10.137Z,9.90
2019-04-14T12:38:38.653Z,9.90
2019-04-14T12:41:10.554Z,9.90
2019-04-14T12:44:03.661Z,10.00
2019-04-14T12:47:03.917Z,10.00
2019-04-14T12:49:37.537Z,9.90
2019-04-14T12:52:21.272Z,9.90
2019-04-14T12:54:46.924Z,9.90
2019-04-14T12:57:18.107Z,9.90
2019-04-14T12:59:46.891Z,9.90
2019-04-14T13:02:22.157Z,10.00
2019-04-14T13:04:51.274Z,10.10
2019-04-14T13:07:19.878Z,10.10
2019-04-14T13:09:48.480Z,10.20
2019-04-14T13:12:17.398Z,10.20
2019-04-14T13:14:46.763Z,10.30
2019-04-14T13:17:15.602Z,10.10
2019-04-14T13:19:44.310Z,10.10
2019-04-14T13:22:12.901Z,10.10
2019-04-14T13:24:41.436Z,10.10
2019-04-14T13:27:14.074Z,10.00
2019-04-14T13:29:43.375Z,10.00
2019-04-14T13:32:11.993Z,10.10
2019-04-14T13:34:40.850Z,10.10
2019-04-14T13:37:09.270Z,10.00
2019-04-14T13:39:37.702Z,10.00
2019-04-14T13:42:06.191Z,10.00
2019-04-14T13:44:40.773Z,10.10
2019-04-14T13:47:09.378Z,10.10
2019-04-14T13:49:37.791Z,10.10
2019-04-14T13:52:07.338Z,10.10
2019-04-14T13:54:37.431Z,9.80
2019-04-14T13:57:14.161Z,9.50
2019-04-14T13:59:42.718Z,9.60
2019-04-14T14:02:11.159Z,9.60
2019-04-14T14:04:39.919Z,9.60
2019-04-14T14:07:08.516Z,9.70
2019-04-14T14:09:37.085Z,9.70
2019-04-14T14:12:40.479Z,9.70
2019-04-14T14:15:27.845Z,9.70
2019-04-14T14:18:14.521Z,9.80
2019-04-14T14:20:55.619Z,9.90
2019-04-14T14:24:07.242Z,9.90
2019-04-14T14:26:36.925Z,9.90
2019-04-14T14:29:07.022Z,10.00
2019-04-14T14:31:35.674Z,9.90
2019-04-14T14:34:04.296Z,10.00
2019-04-14T14:36:32.827Z,10.00
2019-04-14T14:39:01.605Z,10.00
2019-04-14T14:41:30.953Z,9.90
2019-04-14T14:43:59.594Z,9.90
2019-04-14T14:46:48.192Z,9.90
2019-04-14T14:49:22.119Z,10.00
2019-04-14T14:51:53.493Z,10.00
2019-04-14T14:54:21.915Z,10.10
2019-04-14T14:56:51.005Z,10.20
2019-04-14T14:59:19.399Z,10.20
2019-04-14T15:01:47.913Z,10.20
2019-04-14T15:04:18.909Z,10.20
2019-04-14T15:06:47.988Z,10.10
2019-04-14T15:09:18.103Z,10.20
2019-04-14T15:11:46.611Z,10.00
2019-04-14T15:14:15.152Z,10.10
2019-04-14T15:16:45.383Z,10.10
2019-04-14T15:19:14.104Z,10.30
2019-04-14T15:21:43.571Z,10.30
2019-04-14T15:24:12.163Z,10.20
2019-04-14T15:26:40.980Z,10.20
2019-04-14T15:29:10.511Z,10.20
2019-04-14T15:31:39.141Z,10.10
2019-04-14T15:34:10.735Z,10.00
2019-04-14T15:36:39.694Z,10.10
2019-04-14T15:39:08.749Z,10.10
2019-04-14T15:41:38.062Z,10.10
2019-04-14T15:44:06.931Z,10.10
2019-04-14T15:46:35.629Z,10.10
2019-04-14T15:49:04.306Z,10.20
2019-04-14T15:51:32.867Z,10.10
2019-04-14T15:54:01.476Z,10.10
2019-04-14T15:56:39.715Z,10.10
2019-04-14T15:59:14.635Z,10.10
2019-04-14T16:01:50.706Z,10.10
2019-04-14T16:04:23.948Z,10.10
2019-04-14T16:06:59.075Z,10.00
2019-04-14T16:09:40.573Z,10.10
2019-04-14T16:12:32.949Z,10.10
2019-04-14T16:15:32.654Z,10.00
2019-04-14T16:18:39.514Z,10.00
2019-04-14T16:21:08.455Z,10.10
2019-04-14T16:23:49.727Z,10.00
2019-04-14T16:26:21.459Z,10.00
2019-04-14T16:28:58.430Z,10.00
2019-04-14T16:31:49.620Z,10.00
2019-04-14T16:34:30.862Z,10.00
2019-04-14T16:36:59.624Z,9.90
2019-04-14T16:39:28.425Z,10.00
2019-04-14T16:41:56.995Z,10.10
2019-04-14T16:44:26.067Z,10.10
2019-04-14T16:46:54.612Z,10.10
2019-04-14T16:49:23.970Z,10.00
2019-04-14T16:52:12.048Z,10.00
2019-04-14T16:55:01.747Z,9.90
2019-04-14T16:57:48.274Z,9.90
2019-04-14T17:00:23.766Z,10.00
2019-04-14T17:02:52.174Z,9.90
2019-04-14T17:05:21.011Z,10.00
2019-04-14T17:07:49.607Z,10.10
2019-04-14T17:10:18.368Z,10.10
2019-04-14T17:12:46.923Z,10.10
2019-04-14T17:15:33.342Z,10.10
2019-04-14T17:18:21.640Z,10.10
2019-04-14T17:21:12.837Z,10.10
2019-04-14T17:23:55.344Z,10.00
2019-04-14T17:26:44.615Z,10.00
2019-04-14T17:29:47.837Z,10.00
2019-04-14T17:32:24.691Z,9.90
2019-04-14T17:35:07.543Z,9.90
2019-04-14T17:38:01.756Z,10.00
2019-04-14T17:41:02.137Z,10.00
2019-04-14T17:43:34.258Z,10.00
2019-04-14T17:46:15.250Z,10.00
2019-04-14T17:49:00.481Z,10.10
2019-04-14T17:51:46.290Z,10.00
2019-04-14T17:54:34.559Z,10.10
2019-04-14T17:57:35.658Z,10.10
2019-04-14T18:00:36.232Z,10.10
2019-04-14T18:03:24.290Z,10.20
2019-04-14T18:06:01.076Z,10.00
2019-04-14T18:08:49.491Z,10.10
2019-04-14T18:11:43.782Z,10.10
2019-04-14T18:14:38.125Z,10.10
2019-04-14T18:17:22.622Z,10.10
2019-04-14T18:19:55.044Z,10.10
2019-04-14T18:22:23.638Z,10.10
2019-04-14T18:24:52.149Z,10.10
2019-04-14T18:27:23.952Z,10.20
2019-04-14T18:30:17.885Z,10.20
2019-04-14T18:32:53.163Z,10.20
2019-04-14T18:35:39.223Z,10.20
2019-04-14T18:38:28.440Z,10.20
2019-04-14T18:41:25.811Z,10.20
2019-04-14T18:44:16.976Z,10.00
2019-04-14T18:47:11.678Z,9.90
2019-04-14T18:49:50.811Z,9.80
2019-04-14T18:52:28.810Z,9.80
2019-04-14T18:55:17.086Z,9.80
2019-04-14T18:57:58.071Z,9.70
2019-04-14T19:00:34.628Z,9.80
2019-04-14T19:03:03.821Z,9.90
2019-04-14T19:05:32.466Z,10.00
2019-04-14T19:08:00.885Z,10.10
2019-04-14T19:10:29.805Z,10.00
2019-04-14T19:13:17.981Z,9.90
2019-04-14T19:15:52.541Z,9.80
2019-04-14T19:18:26.576Z,9.80
2019-04-14T19:21:17.638Z,9.80
2019-04-14T19:23:46.885Z,9.90
2019-04-14T19:26:16.084Z,9.90
2019-04-14T19:28:44.743Z,9.90
2019-04-14T19:31:15.028Z,9.90
2019-04-14T19:33:44.718Z,9.80
2019-04-14T19:36:14.211Z,9.80
2019-04-14T19:38:43.020Z,9.80
2019-04-14T19:41:11.574Z,9.90
2019-04-14T19:43:40.330Z,10.00
2019-04-14T19:46:09.897Z,10.00
2019-04-14T19:48:38.391Z,9.90
2019-04-14T19:51:07.008Z,9.90
2019-04-14T19:53:35.762Z,9.90
2019-04-14T19:56:05.962Z,9.90
2019-04-14T19:58:34.627Z,9.90
2019-04-14T20:01:07.055Z,9.80
2019-04-14T20:03:35.007Z,9.70
2019-04-14T20:06:03.792Z,9.70
2019-04-14T20:08:32.703Z,9.70
2019-04-14T20:11:01.221Z,9.90
2019-04-14T20:13:34.389Z,9.90
2019-04-14T20:16:34.920Z,9.90
2019-04-14T20:19:15.026Z,9.90
2019-04-14T20:22:15.344Z,9.80
2019-04-14T20:25:03.674Z,9.80
2019-04-14T20:27:47.236Z,9.80
2019-04-14T20:30:29.809Z,9.90
2019-04-14T20:32:59.029Z,9.90
2019-04-14T20:35:29.336Z,9.90
2019-04-14T20:37:58.716Z,9.90
2019-04-14T20:40:27.342Z,9.80
2019-04-14T20:42:55.728Z,9.90
2019-04-14T20:45:24.326Z,9.80
2019-04-14T20:47:53.033Z,9.80
2019-04-14T20:50:21.456Z,9.80
2019-04-14T20:52:51.882Z,9.90
2019-04-14T20:55:20.741Z,9.90
2019-04-14T20:57:50.085Z,10.00
2019-04-14T21:00:20.786Z,10.00
2019-04-14T21:03:03.139Z,9.90
2019-04-14T21:05:51.888Z,9.90
2019-04-14T21:08:40.048Z,9.80
2019-04-14T21:11:16.066Z,9.80
2019-04-14T21:14:07.278Z,9.70
2019-04-14T21:16:45.707Z,9.70
2019-04-14T21:19:29.098Z,9.60
2019-04-14T21:22:16.715Z,9.60
2019-04-14T21:25:15.754Z,9.60
2019-04-14T21:28:03.906Z,9.60
2019-04-14T21:30:47.203Z,9.60
2019-04-14T21:33:33.777Z,9.60
2019-04-14T21:36:40.429Z,9.60
2019-04-14T21:39:43.871Z,9.60
2019-04-14T21:42:13.693Z,9.40
2019-04-14T21:44:42.160Z,9.40
2019-04-14T21:47:11.010Z,9.40
2019-04-14T21:49:39.712Z,9.30
2019-04-14T21:52:24.342Z,9.30
2019-04-14T21:54:53.169Z,9.40
2019-04-14T21:57:52.652Z,9.30
2019-04-14T22:01:33.416Z,9.30
2019-04-14T22:04:11.429Z,9.30
2019-04-14T22:06:40.615Z,9.20
2019-04-14T22:09:15.662Z,9.10
2019-04-14T22:11:44.066Z,9.10
2019-04-14T22:14:12.776Z,9.10
2019-04-14T22:16:41.436Z,8.90
2019-04-14T22:19:10.033Z,8.90
2019-04-14T22:21:38.633Z,8.90
2019-04-14T22:24:07.208Z,8.90
2019-04-14T22:26:36.129Z,9.00
2019-04-14T22:29:05.422Z,9.00
2019-04-14T22:31:33.819Z,9.10
2019-04-14T22:34:03.934Z,9.10
2019-04-14T22:36:32.320Z,9.10
2019-04-14T22:39:01.031Z,9.10
2019-04-14T22:41:29.411Z,9.00
2019-04-14T22:43:57.835Z,9.00
2019-04-14T22:46:26.228Z,9.00
2019-04-14T22:48:54.985Z,9.00
2019-04-14T22:51:23.639Z,9.10
2019-04-14T22:53:52.244Z,9.10
2019-04-14T22:56:20.801Z,9.00
2019-04-14T22:58:49.619Z,8.90
2019-04-14T23:01:25.505Z,8.90
2019-04-14T23:04:28.974Z,8.80
2019-04-14T23:07:19.741Z,8.90
2019-04-14T23:10:02.144Z,8.90
2019-04-14T23:12:52.013Z,8.90
2019-04-14T23:15:34.369Z,8.80
2019-04-14T23:18:19.250Z,8.80
2019-04-14T23:21:07.544Z,8.80
2019-04-14T23:23:43.894Z,8.90
2019-04-14T23:26:12.412Z,8.80
2019-04-14T23:28:41.015Z,8.80
2019-04-14T23:31:09.688Z,8.80
2019-04-14T23:33:38.262Z,8.80
2019-04-14T23:36:07.106Z,8.80
2019-04-14T23:38:35.874Z,8.70
2019-04-14T23:41:06.095Z,8.60
2019-04-14T23:43:34.767Z,8.60
2019-04-14T23:46:05.259Z,8.60
2019-04-14T23:48:33.949Z,8.50
2019-04-14T23:51:02.460Z,8.50
2019-04-14T23:53:31.306Z,8.50
2019-04-14T23:55:59.936Z,8.60
2019-04-14T23:58:28.579Z,8.60
